createdAt,value
2023-03-06T00:00:35.586Z,0.78
2023-03-06T00:04:38.390Z,0.82
2023-03-06T00:08:39.832Z,0.84
2023-03-06T00:12:41.420Z,0.86
2023-03-06T00:16:42.911Z,0.82
2023-03-06T00:20:45.927Z,0.87
2023-03-06T00:24:47.342Z,0.88
2023-03-06T00:28:48.765Z,0.87
2023-03-06T00:32:50.593Z,0.84
2023-03-06T00:36:53.709Z,0.92
2023-03-06T00:40:55.123Z,0.79
2023-03-06T00:44:56.579Z,0.70
2023-03-06T00:48:58.032Z,0.83
2023-03-06T00:53:00.824Z,0.90
2023-03-06T00:57:02.288Z,0.79
2023-03-06T01:01:04.204Z,0.77
2023-03-06T01:05:07.405Z,0.76
2023-03-06T01:09:10.287Z,0.82
2023-03-06T01:13:11.729Z,0.71
2023-03-06T01:17:13.178Z,0.63
2023-03-06T01:21:14.718Z,0.65
2023-03-06T01:25:17.751Z,0.65
2023-03-06T01:29:19.249Z,0.55
2023-03-06T01:33:20.740Z,0.51
2023-03-06T01:37:22.407Z,0.58
2023-03-06T01:41:25.222Z,0.54
2023-03-06T01:46:04.216Z,0.48
2023-03-06T01:50:08.642Z,0.40
2023-03-06T01:54:13.430Z,0.28
2023-03-06T01:58:18.831Z,0.23
2023-03-06T02:02:20.830Z,0.18
2023-03-06T02:06:22.390Z,0.22
2023-03-06T02:10:23.948Z,0.24
2023-03-06T02:14:27.297Z,0.32
2023-03-06T02:18:29.553Z,0.29
2023-03-06T02:22:37.473Z,0.37
2023-03-06T02:26:42.321Z,0.36
2023-03-06T02:30:45.839Z,0.26
2023-03-06T02:34:53.864Z,0.18
2023-03-06T02:38:55.600Z,0.17
2023-03-06T02:42:58.987Z,0.20
2023-03-06T02:47:00.500Z,0.18
2023-03-06T02:51:01.956Z,0.17
2023-03-06T02:55:04.230Z,0.14
2023-03-06T02:59:07.018Z,0.13
2023-03-06T03:03:08.585Z,-0.01
2023-03-06T03:07:10.080Z,-0.02
2023-03-06T03:11:11.645Z,-0.06
2023-03-06T03:15:14.772Z,-0.06
2023-03-06T03:19:16.228Z,-0.04
2023-03-06T03:23:17.775Z,-0.16
2023-03-06T03:27:19.212Z,-0.17
2023-03-06T03:31:22.096Z,-0.24
2023-03-06T03:35:23.567Z,-0.25
2023-03-06T03:39:25.077Z,-0.32
2023-03-06T03:43:26.526Z,-0.33
2023-03-06T03:47:29.318Z,-0.36
2023-03-06T03:51:31.396Z,-0.44
2023-03-06T03:55:32.828Z,-0.35
2023-03-06T03:59:34.265Z,-0.43
2023-03-06T04:03:37.063Z,-0.49
2023-03-06T04:07:38.920Z,-0.46
2023-03-06T04:11:40.413Z,-0.49
2023-03-06T04:15:41.838Z,-0.44
2023-03-06T04:19:44.620Z,-0.41
2023-03-06T04:23:46.068Z,-0.31
2023-03-06T04:27:47.504Z,-0.18
2023-03-06T04:31:48.965Z,-0.21
2023-03-06T04:35:51.829Z,-0.18
2023-03-06T04:39:53.307Z,-0.17
2023-03-06T04:43:54.849Z,-0.14
2023-03-06T04:47:56.354Z,-0.04
2023-03-06T04:51:59.187Z,-0.05
2023-03-06T04:56:00.707Z,-0.05
2023-03-06T05:00:02.341Z,-0.10
2023-03-06T05:04:04.089Z,-0.09
2023-03-06T05:08:07.263Z,-0.12
2023-03-06T05:12:08.719Z,-0.07
2023-03-06T05:16:10.251Z,-0.17
2023-03-06T05:20:13.003Z,-0.11
2023-03-06T05:24:15.798Z,-0.16
2023-03-06T05:28:17.305Z,-0.23
2023-03-06T05:32:18.818Z,-0.31
2023-03-06T05:36:20.256Z,-0.43
2023-03-06T05:40:23.085Z,-0.52
2023-03-06T05:44:24.515Z,-0.50
2023-03-06T05:48:25.929Z,-0.52
2023-03-06T05:52:27.430Z,-0.42
2023-03-06T05:56:30.195Z,-0.35
2023-03-06T06:00:31.641Z,-0.36
2023-03-06T06:04:33.154Z,-0.36
2023-03-06T06:08:34.716Z,-0.34
2023-03-06T06:12:37.506Z,-0.22
2023-03-06T06:16:38.921Z,-0.12
2023-03-06T06:20:40.379Z,-0.13
2023-03-06T06:24:42.008Z,-0.20
2023-03-06T06:28:44.787Z,-0.23
2023-03-06T06:32:46.615Z,-0.14
2023-03-06T06:36:48.424Z,-0.08
2023-03-06T06:41:25.521Z,0.01
2023-03-06T06:45:13.050Z,0.12
2023-03-06T06:49:14.740Z,0.32
2023-03-06T06:53:16.175Z,0.34
2023-03-06T06:57:17.804Z,0.35
2023-03-06T07:01:21.126Z,0.43
2023-03-06T07:05:22.859Z,0.54
2023-03-06T07:09:24.889Z,0.65
2023-03-06T07:13:26.449Z,0.74
2023-03-06T07:17:29.251Z,0.69
2023-03-06T07:21:30.909Z,0.75
2023-03-06T07:25:32.357Z,0.94
2023-03-06T07:29:33.882Z,0.89
2023-03-06T07:33:36.795Z,1.01
2023-03-06T07:37:38.229Z,1.00
2023-03-06T07:41:39.678Z,1.07
2023-03-06T07:45:41.153Z,1.15
2023-03-06T07:49:43.929Z,1.27
2023-03-06T07:53:45.639Z,1.40
2023-03-06T07:57:49.805Z,1.40
2023-03-06T08:01:51.301Z,1.60
2023-03-06T08:05:54.108Z,1.72
2023-03-06T08:09:55.575Z,1.82
2023-03-06T08:13:58.050Z,1.83
2023-03-06T08:17:59.544Z,1.98
2023-03-06T08:22:04.062Z,1.84
2023-03-06T08:26:07.396Z,1.70
2023-03-06T08:30:10.209Z,1.72
2023-03-06T08:34:14.482Z,1.77
2023-03-06T08:38:17.275Z,1.83
2023-03-06T08:42:18.717Z,1.84
2023-03-06T08:46:22.336Z,1.99
2023-03-06T08:50:23.775Z,2.02
2023-03-06T08:54:26.615Z,2.01
2023-03-06T08:58:29.013Z,2.34
2023-03-06T09:02:30.493Z,2.38
2023-03-06T09:06:35.285Z,2.22
2023-03-06T09:10:38.159Z,2.21
2023-03-06T09:14:39.668Z,2.01
2023-03-06T09:18:41.375Z,2.22
2023-03-06T09:22:43.033Z,2.46
2023-03-06T09:26:47.971Z,2.56
2023-03-06T09:30:50.668Z,2.68
2023-03-06T09:34:52.156Z,2.47
2023-03-06T09:38:53.587Z,2.73
2023-03-06T09:42:56.404Z,2.88
2023-03-06T09:47:20.119Z,3.06
2023-03-06T09:51:28.551Z,3.07
2023-03-06T09:55:32.677Z,3.01
2023-03-06T09:59:35.722Z,3.33
2023-03-06T10:03:44.355Z,3.03
2023-03-06T10:07:50.781Z,2.81
2023-03-06T10:11:56.361Z,2.78
2023-03-06T10:16:06.787Z,2.67
2023-03-06T10:20:20.856Z,2.43
2023-03-06T10:24:50.131Z,2.45
2023-03-06T10:29:05.958Z,2.23
2023-03-06T10:33:21.211Z,2.37
2023-03-06T10:37:22.939Z,2.42
2023-03-06T10:41:27.232Z,2.57
2023-03-06T10:45:31.271Z,2.39
2023-03-06T10:49:38.385Z,2.36
2023-03-06T10:53:50.020Z,2.05
2023-03-06T10:57:51.926Z,1.90
2023-03-06T11:01:56.344Z,1.65
2023-03-06T11:06:06.543Z,1.16
2023-03-06T11:10:18.179Z,0.64
2023-03-06T11:14:21.464Z,0.61
2023-03-06T11:18:29.542Z,0.73
2023-03-06T11:22:32.842Z,0.91
2023-03-06T11:26:47.058Z,1.17
2023-03-06T11:30:52.163Z,1.51
2023-03-06T11:34:58.960Z,1.75
2023-03-06T11:39:04.128Z,1.67
2023-03-06T11:43:17.137Z,1.59
2023-03-06T11:47:23.185Z,1.76
2023-03-06T11:51:30.209Z,2.12
2023-03-06T11:55:50.508Z,2.40
2023-03-06T12:00:12.069Z,2.66
2023-03-06T12:04:37.800Z,3.03
2023-03-06T12:08:51.163Z,3.08
2023-03-06T12:17:46.025Z,2.64
2023-03-06T12:21:58.651Z,2.87
2023-03-06T12:26:05.377Z,3.11
2023-03-06T12:30:28.766Z,3.16
2023-03-06T12:34:49.462Z,3.20
2023-03-06T12:39:16.133Z,3.29
2023-03-06T12:43:47.842Z,3.29
2023-03-06T12:47:54.390Z,3.19
2023-03-06T12:51:57.267Z,3.17
2023-03-06T12:56:01.812Z,3.03
2023-03-06T13:00:04.158Z,3.18
2023-03-06T13:04:34.835Z,3.32
2023-03-06T13:09:02.847Z,3.27
2023-03-06T13:13:27.407Z,3.63
2023-03-06T13:17:37.055Z,3.53
2023-03-06T13:22:25.494Z,3.34
2023-03-06T13:26:50.734Z,4.52
2023-03-06T13:30:53.278Z,4.32
2023-03-06T13:34:54.995Z,4.65
2023-03-06T13:39:07.881Z,5.18
2023-03-06T13:43:21.536Z,5.73
2023-03-06T13:47:32.406Z,5.44
2023-03-06T13:51:36.420Z,4.44
2023-03-06T13:55:49.717Z,4.32
2023-03-06T14:00:34.832Z,4.27
2023-03-06T14:04:41.894Z,3.98
2023-03-06T14:08:44.310Z,3.92
2023-03-06T14:13:01.120Z,3.86
2023-03-06T14:17:05.241Z,3.71
2023-03-06T14:21:11.223Z,3.53
2023-03-06T14:25:17.735Z,3.75
2023-03-06T14:29:22.102Z,3.52
2023-03-06T14:33:30.042Z,3.58
2023-03-06T14:37:36.547Z,3.75
2023-03-06T14:41:38.746Z,3.59
2023-03-06T14:45:50.812Z,3.65
2023-03-06T14:50:19.743Z,3.73
2023-03-06T14:54:25.960Z,3.84
2023-03-06T14:58:29.701Z,3.87
2023-03-06T15:02:32.922Z,3.88
2023-03-06T15:06:40.063Z,3.77
2023-03-06T15:10:41.694Z,3.44
2023-03-06T15:14:49.294Z,3.40
2023-03-06T15:18:57.328Z,3.50
2023-03-06T15:22:58.783Z,3.48
2023-03-06T15:27:04.152Z,3.42
2023-03-06T15:31:21.794Z,3.12
2023-03-06T15:35:30.248Z,3.05
2023-03-06T15:39:37.276Z,2.40
2023-03-06T15:43:39.895Z,1.75
2023-03-06T15:47:41.510Z,1.28
2023-03-06T15:51:44.333Z,1.01
2023-03-06T15:55:46.259Z,0.92
2023-03-06T15:59:47.801Z,0.62
2023-03-06T16:03:49.555Z,0.38
2023-03-06T16:07:52.703Z,0.01
2023-03-06T16:11:54.224Z,-0.19
2023-03-06T16:15:56.044Z,-0.23
2023-03-06T16:19:57.489Z,-0.25
2023-03-06T16:24:00.264Z,-0.31
2023-03-06T16:28:02.286Z,-0.20
2023-03-06T16:32:04.010Z,-0.20
2023-03-06T16:36:11.937Z,-0.17
2023-03-06T16:40:19.284Z,-0.07
2023-03-06T16:44:21.038Z,0.05
2023-03-06T16:48:22.542Z,0.12
2023-03-06T16:52:24.301Z,0.16
2023-03-06T16:56:27.101Z,0.12
2023-03-06T17:00:30.112Z,0.18
2023-03-06T17:04:35.696Z,0.17
2023-03-06T17:08:37.236Z,0.14
2023-03-06T17:12:40.146Z,0.15
2023-03-06T17:16:41.672Z,0.12
2023-03-06T17:20:48.447Z,0.13
2023-03-06T17:24:50.054Z,0.11
2023-03-06T17:28:52.917Z,0.23
2023-03-06T17:32:54.388Z,0.19
2023-03-06T17:36:56.150Z,0.22
2023-03-06T17:41:02.127Z,0.25
2023-03-06T17:45:06.317Z,0.26
2023-03-06T17:49:07.793Z,0.24
2023-03-06T17:53:09.244Z,0.26
2023-03-06T17:57:10.702Z,0.20
2023-03-06T18:01:16.240Z,0.20
2023-03-06T18:05:17.984Z,0.24
2023-03-06T18:09:19.512Z,0.29
2023-03-06T18:13:20.986Z,0.28
2023-03-06T18:17:23.814Z,0.23
2023-03-06T18:21:25.597Z,0.17
2023-03-06T18:25:27.022Z,0.13
2023-03-06T18:29:28.470Z,0.17
2023-03-06T18:33:31.256Z,0.11
2023-03-06T18:37:32.695Z,0.07
2023-03-06T18:41:35.071Z,0.08
2023-03-06T18:45:36.582Z,0.11
2023-03-06T18:49:40.550Z,0.16
2023-03-06T18:53:42.811Z,0.20
2023-03-06T18:57:44.285Z,0.23
2023-03-06T19:01:47.139Z,0.22
2023-03-06T19:05:49.968Z,0.18
2023-03-06T19:09:51.474Z,0.21
2023-03-06T19:13:52.934Z,0.17
2023-03-06T19:17:54.476Z,0.16
2023-03-06T19:21:58.757Z,0.16
2023-03-06T19:26:00.576Z,0.18
2023-03-06T19:30:02.016Z,0.19
2023-03-06T19:34:03.534Z,0.19
2023-03-06T19:38:06.302Z,0.10
2023-03-06T19:42:07.741Z,-0.05
2023-03-06T19:46:12.163Z,-0.10
2023-03-06T19:50:13.635Z,-0.16
2023-03-06T19:54:16.429Z,-0.20
2023-03-06T19:58:17.875Z,-0.21
2023-03-06T20:02:19.348Z,-0.25
2023-03-06T20:06:20.815Z,-0.30
2023-03-06T20:10:23.688Z,-0.37
2023-03-06T20:14:25.918Z,-0.34
2023-03-06T20:18:27.425Z,-0.40
2023-03-06T20:22:28.861Z,-0.50
2023-03-06T20:26:31.854Z,-0.58
2023-03-06T20:30:38.163Z,-0.62
2023-03-06T20:34:40.652Z,-0.78
2023-03-06T20:38:42.522Z,-0.61
2023-03-06T20:42:45.348Z,-0.51
2023-03-06T20:46:46.914Z,-0.44
2023-03-06T20:50:58.721Z,-0.45
2023-03-06T20:55:00.346Z,-0.41
2023-03-06T20:59:03.278Z,-0.36
2023-03-06T21:03:04.710Z,-0.26
2023-03-06T21:07:06.534Z,-0.19
2023-03-06T21:11:08.018Z,-0.10
2023-03-06T21:15:11.632Z,-0.06
2023-03-06T21:19:13.118Z,-0.06
2023-03-06T21:23:14.624Z,-0.10
2023-03-06T21:27:16.030Z,-0.22
2023-03-06T21:31:21.041Z,-0.41
2023-03-06T21:35:22.731Z,-0.51
2023-03-06T21:39:24.212Z,-0.69
2023-03-06T21:43:25.644Z,-0.83
2023-03-06T21:47:28.423Z,-0.95
2023-03-06T21:51:29.852Z,-1.06
2023-03-06T21:55:31.490Z,-1.10
2023-03-06T21:59:33.752Z,-1.12
2023-03-06T22:03:36.562Z,-1.25
2023-03-06T22:07:38.323Z,-1.25
2023-03-06T22:11:39.835Z,-1.33
2023-03-06T22:15:49.123Z,-1.24
2023-03-06T22:19:52.470Z,-1.11
2023-03-06T22:23:55.691Z,-1.12
2023-03-06T22:27:57.096Z,-1.04
2023-03-06T22:31:58.652Z,-1.04
2023-03-06T22:36:02.542Z,-0.94
2023-03-06T22:40:04.595Z,-1.09
2023-03-06T22:44:07.238Z,-1.18
2023-03-06T22:48:11.066Z,-1.28
2023-03-06T22:52:15.257Z,-1.26
2023-03-06T22:56:18.544Z,-1.15
2023-03-06T23:00:20.105Z,-1.02
2023-03-06T23:04:21.654Z,-0.92
2023-03-06T23:08:24.469Z,-0.84
2023-03-06T23:12:25.916Z,-0.76
2023-03-06T23:16:27.384Z,-0.67
2023-03-06T23:20:28.821Z,-0.59
2023-03-06T23:24:31.582Z,-0.53
2023-03-06T23:28:33.936Z,-0.57
2023-03-06T23:32:35.394Z,-0.62
2023-03-06T23:36:36.883Z,-0.66
2023-03-06T23:40:40.451Z,-0.74
2023-03-06T23:44:41.899Z,-0.72
2023-03-06T23:48:44.456Z,-0.62
2023-03-06T23:52:45.933Z,-0.56
2023-03-06T23:56:48.716Z,-0.52
